Time;durP1;ratioP1;P1;durP2;ratioP2;P2;SDS_P1;SDS_P2;PMS_P1;PMS_P2;Temp;Humidity;BMP_temperature;BMP_pressure;BME280_temperature;BME280_humidity;BME280_pressure;Samples;Min_cycle;Max_cycle;Signal;HPM_P1;HPM_P2
2021/08/31 00:00:32;;;;;;;10.95;7.78;;;14.80;99.90;;;;;;2090008;28;20033;-71
2021/08/31 00:01:33;;;;;;;12.35;8.63;;;14.90;99.90;;;;;;2089872;28;20022;-71
2021/08/31 00:02:33;;;;;;;11.73;9.07;;;14.80;99.90;;;;;;2089072;28;20018;-71
2021/08/31 00:03:34;;;;;;;10.00;8.90;;;14.80;99.90;;;;;;2089502;28;20032;-73
2021/08/31 00:04:35;;;;;;;14.60;10.30;;;14.80;99.90;;;;;;2088767;28;20043;-73
2021/08/31 00:05:35;;;;;;;15.65;10.80;;;14.80;99.90;;;;;;2088908;28;20124;-73
2021/08/31 00:06:36;;;;;;;15.68;11.05;;;14.80;99.90;;;;;;2089275;28;20088;-73
2021/08/31 00:07:36;;;;;;;12.70;10.82;;;14.80;99.90;;;;;;2080566;28;20105;-73
2021/08/31 00:08:37;;;;;;;19.85;12.35;;;14.80;99.90;;;;;;2079703;28;20032;-73
2021/08/31 00:09:38;;;;;;;15.65;11.93;;;14.80;99.90;;;;;;2088525;28;20518;-73
2021/08/31 00:10:38;;;;;;;14.02;10.63;;;14.80;99.90;;;;;;2089242;28;20779;-73
2021/08/31 00:11:39;;;;;;;15.18;11.60;;;14.80;99.90;;;;;;2080556;28;20037;-73
2021/08/31 00:12:40;;;;;;;18.88;12.60;;;14.80;99.90;;;;;;2080543;28;20025;-73
2021/08/31 00:13:40;;;;;;;17.05;12.45;;;14.80;99.90;;;;;;2088891;28;20029;-73
2021/08/31 00:14:41;;;;;;;13.75;11.57;;;14.80;99.90;;;;;;2089536;28;20840;-73
2021/08/31 00:15:42;;;;;;;20.20;13.10;;;14.80;99.90;;;;;;2080631;28;20037;-73
2021/08/31 00:16:43;;;;;;;15.73;12.43;;;14.80;99.90;;;;;;2080650;28;20030;-72
2021/08/31 00:17:43;;;;;;;16.05;12.30;;;14.70;99.90;;;;;;2089284;28;20039;-73
2021/08/31 00:18:44;;;;;;;13.32;11.82;;;14.70;99.90;;;;;;2089113;28;20028;-72
2021/08/31 00:19:45;;;;;;;15.52;11.90;;;14.80;99.90;;;;;;2089326;28;20033;-73
2021/08/31 00:20:46;;;;;;;15.05;11.82;;;14.80;99.90;;;;;;2089185;28;20029;-73
2021/08/31 00:21:47;;;;;;;19.58;12.98;;;14.80;99.90;;;;;;2089233;28;20114;-73
2021/08/31 00:22:48;;;;;;;15.85;12.68;;;14.70;99.90;;;;;;2089359;28;20428;-73
2021/08/31 00:23:48;;;;;;;18.00;13.70;;;14.70;99.90;;;;;;2088764;28;20037;-73
2021/08/31 00:24:49;;;;;;;21.95;14.40;;;14.70;99.90;;;;;;2089250;28;20120;-73
2021/08/31 00:25:52;;;;;;;22.80;14.55;;;14.70;99.90;;;;;;2089370;28;20483;-72
2021/08/31 00:26:53;;;;;;;18.55;14.13;;;14.70;99.90;;;;;;2088760;28;20044;-73
2021/08/31 00:27:54;;;;;;;20.30;14.43;;;14.70;99.90;;;;;;2088975;28;20396;-72
2021/08/31 00:28:55;;;;;;;19.88;13.98;;;14.70;99.90;;;;;;2088926;28;20035;-73
2021/08/31 00:29:55;;;;;;;21.42;15.43;;;14.70;99.90;;;;;;2089158;28;20083;-73
2021/08/31 00:30:56;;;;;;;25.10;15.77;;;14.70;99.90;;;;;;2089295;28;20040;-73
2021/08/31 00:31:57;;;;;;;25.33;16.50;;;14.70;99.90;;;;;;2089298;28;20112;-73
2021/08/31 00:32:57;;;;;;;20.35;16.00;;;14.70;99.90;;;;;;2089370;28;20036;-73
2021/08/31 00:33:58;;;;;;;21.90;15.57;;;14.70;99.90;;;;;;2089127;28;20041;-73
2021/08/31 00:34:58;;;;;;;20.60;15.10;;;14.70;99.90;;;;;;2090072;28;20033;-73
2021/08/31 00:36:03;;;;;;;30.48;16.55;;;14.70;99.90;;;;;;2089708;28;20044;-73
2021/08/31 00:37:05;;;;;;;19.92;15.50;;;14.70;99.90;;;;;;2089538;28;20044;-73
2021/08/31 00:38:05;;;;;;;25.63;16.50;;;14.70;99.90;;;;;;2090234;28;20040;-73
2021/08/31 00:39:06;;;;;;;25.80;16.65;;;14.70;99.90;;;;;;2089481;28;20084;-73
2021/08/31 00:40:07;;;;;;;27.85;16.67;;;14.60;99.90;;;;;;2080402;28;20054;-73
2021/08/31 00:41:08;;;;;;;22.50;15.50;;;14.70;99.90;;;;;;2080546;28;20156;-72
2021/08/31 00:42:08;;;;;;;26.13;17.08;;;14.70;99.90;;;;;;2089086;28;21090;-73
2021/08/31 00:43:09;;;;;;;23.48;16.15;;;14.60;99.90;;;;;;2089217;28;20031;-72
2021/08/31 00:44:20;;;;;;;29.70;18.15;;;14.70;99.90;;;;;;2089022;28;20543;-72
2021/08/31 00:45:21;;;;;;;24.95;17.13;;;14.60;99.90;;;;;;2081209;28;20026;-73
2021/08/31 00:46:22;;;;;;;22.42;16.52;;;14.60;99.90;;;;;;2080867;28;20025;-73
2021/08/31 00:47:24;;;;;;;23.25;17.23;;;14.60;99.90;;;;;;2089643;28;20025;-73
2021/08/31 00:48:24;;;;;;;24.17;17.50;;;14.60;99.90;;;;;;2080361;28;20048;-73
2021/08/31 00:49:26;;;;;;;24.55;17.05;;;14.70;99.90;;;;;;2080411;28;20033;-72
2021/08/31 00:50:26;;;;;;;30.67;18.98;;;14.60;99.90;;;;;;2089686;28;20025;-72
2021/08/31 00:51:28;;;;;;;21.95;17.95;;;14.60;99.90;;;;;;2089548;28;20021;-72
2021/08/31 00:52:29;;;;;;;29.00;18.25;;;14.60;99.90;;;;;;2088968;28;20075;-73
2021/08/31 00:53:30;;;;;;;25.25;18.85;;;14.70;99.90;;;;;;2079860;28;20048;-73
2021/08/31 00:54:31;;;;;;;30.13;19.63;;;14.60;99.90;;;;;;2079991;28;20515;-73
2021/08/31 00:55:31;;;;;;;25.10;18.15;;;14.60;99.90;;;;;;2080386;28;20595;-73
2021/08/31 00:56:32;;;;;;;26.63;18.80;;;14.60;99.90;;;;;;2089081;28;20093;-73
2021/08/31 00:57:33;;;;;;;26.60;18.92;;;14.60;99.90;;;;;;2089040;28;20396;-73
2021/08/31 00:58:34;;;;;;;26.45;18.77;;;14.60;99.90;;;;;;2088934;28;20031;-74
2021/08/31 00:59:35;;;;;;;25.70;17.95;;;14.60;99.90;;;;;;2080017;28;20116;-73
2021/08/31 01:00:35;;;;;;;31.98;19.40;;;14.70;99.90;;;;;;2080458;28;20030;-73
2021/08/31 01:01:36;;;;;;;25.17;18.60;;;14.70;99.90;;;;;;2088973;28;20024;-71
2021/08/31 01:02:36;;;;;;;24.58;18.67;;;14.60;99.90;;;;;;2089442;28;20480;-74
2021/08/31 01:03:37;;;;;;;26.48;20.02;;;14.60;99.90;;;;;;2079868;28;20029;-74
2021/08/31 01:04:38;;;;;;;31.48;20.50;;;14.60;99.90;;;;;;2080282;28;20029;-73
2021/08/31 01:05:38;;;;;;;26.88;19.52;;;14.60;99.90;;;;;;2089204;28;20048;-72
2021/08/31 01:06:39;;;;;;;30.85;20.88;;;14.60;99.90;;;;;;2089035;28;20029;-72
2021/08/31 01:07:40;;;;;;;33.33;21.90;;;14.60;99.90;;;;;;2088963;28;20037;-73
2021/08/31 01:08:41;;;;;;;33.00;21.92;;;14.50;99.90;;;;;;2088702;28;20025;-73
2021/08/31 01:09:43;;;;;;;40.00;23.25;;;14.50;99.90;;;;;;2088912;28;20043;-72
2021/08/31 01:10:45;;;;;;;36.25;23.27;;;14.50;99.90;;;;;;2088977;28;20036;-73
2021/08/31 01:11:50;;;;;;;43.67;25.48;;;14.50;99.90;;;;;;2088919;28;20028;-73
2021/08/31 01:12:55;;;;;;;39.67;24.42;;;14.40;99.90;;;;;;2088955;28;20032;-72
2021/08/31 01:13:56;;;;;;;43.90;25.73;;;14.40;99.90;;;;;;2088506;28;20036;-73
2021/08/31 01:14:56;;;;;;;35.13;23.88;;;14.40;99.90;;;;;;2088783;28;20048;-73
2021/08/31 01:15:57;;;;;;;35.25;23.77;;;14.40;99.90;;;;;;2088966;28;20033;-73
2021/08/31 01:16:58;;;;;;;41.85;24.98;;;14.40;99.90;;;;;;2088944;28;20029;-72
2021/08/31 01:18:19;;;;;;;36.45;23.65;;;14.40;99.90;;;;;;2088853;28;20039;-72
2021/08/31 01:19:30;;;;;;;33.15;23.65;;;14.50;99.90;;;;;;2089097;28;20503;-73
2021/08/31 01:20:32;;;;;;;40.58;24.00;;;14.50;99.90;;;;;;2080457;28;20033;-73
2021/08/31 01:21:33;;;;;;;52.75;26.50;;;14.50;99.90;;;;;;2080601;28;20028;-73
2021/08/31 01:22:34;;;;;;;45.45;26.13;;;14.40;99.90;;;;;;2089375;28;20033;-73
2021/08/31 01:23:35;;;;;;;40.75;26.05;;;14.40;99.90;;;;;;2088600;28;20033;-72
2021/08/31 01:24:36;;;;;;;39.63;24.70;;;14.40;99.90;;;;;;2080050;28;20037;-73
2021/08/31 01:25:38;;;;;;;41.50;25.13;;;14.40;99.90;;;;;;2080217;28;20033;-73
2021/08/31 01:26:38;;;;;;;35.67;24.42;;;14.40;99.90;;;;;;2079974;28;20055;-72
2021/08/31 01:27:39;;;;;;;35.20;23.83;;;14.40;99.90;;;;;;2080117;28;20056;-73
2021/08/31 01:28:40;;;;;;;42.30;24.98;;;14.40;99.90;;;;;;2088818;28;20472;-72
2021/08/31 01:29:40;;;;;;;35.70;24.13;;;14.40;99.90;;;;;;2088960;28;20116;-72
2021/08/31 01:30:43;;;;;;;40.88;26.08;;;14.40;99.90;;;;;;2088914;28;20100;-72
2021/08/31 01:31:44;;;;;;;41.78;26.10;;;14.40;99.90;;;;;;2088947;28;20040;-72
2021/08/31 01:32:44;;;;;;;46.38;27.65;;;14.40;99.90;;;;;;2089012;28;20024;-72
2021/08/31 01:33:45;;;;;;;38.15;26.35;;;14.30;99.90;;;;;;2088408;28;20585;-71
2021/08/31 01:34:45;;;;;;;42.83;26.90;;;14.30;99.90;;;;;;2080205;28;20086;-72
2021/08/31 01:35:46;;;;;;;58.58;29.45;;;14.30;99.90;;;;;;2079935;28;20033;-72
2021/08/31 01:36:47;;;;;;;43.28;27.52;;;14.30;99.90;;;;;;2088875;28;20025;-72
2021/08/31 01:37:48;;;;;;;43.97;27.25;;;14.30;99.90;;;;;;2088770;28;20115;-72
2021/08/31 01:38:55;;;;;;;53.72;28.65;;;14.40;99.90;;;;;;2088582;28;20029;-72
2021/08/31 01:39:55;;;;;;;37.45;26.95;;;14.40;99.90;;;;;;2079947;28;20028;-71
2021/08/31 01:40:56;;;;;;;41.78;25.90;;;14.40;99.90;;;;;;2079976;28;20033;-72
2021/08/31 01:41:56;;;;;;;42.33;25.67;;;14.40;99.90;;;;;;2088790;28;20021;-71
2021/08/31 01:42:57;;;;;;;37.28;25.05;;;14.40;99.90;;;;;;2088822;28;20113;-72
2021/08/31 01:43:57;;;;;;;37.00;24.35;;;14.40;99.90;;;;;;2088300;28;20044;-72
2021/08/31 01:44:58;;;;;;;43.47;25.85;;;14.40;99.90;;;;;;2088557;28;20035;-72
2021/08/31 01:46:00;;;;;;;47.88;27.73;;;14.40;99.90;;;;;;2088702;28;20389;-72
2021/08/31 01:47:00;;;;;;;44.35;27.63;;;14.30;99.90;;;;;;2088771;28;20025;-70
2021/08/31 01:48:01;;;;;;;51.00;29.13;;;14.20;99.90;;;;;;2079875;28;20422;-72
2021/08/31 01:49:02;;;;;;;44.22;28.30;;;14.20;99.90;;;;;;2079559;28;20401;-72
2021/08/31 01:50:04;;;;;;;44.72;28.45;;;14.20;99.90;;;;;;2088790;28;20354;-70
2021/08/31 01:51:06;;;;;;;46.33;28.25;;;14.20;99.90;;;;;;2079822;28;20126;-70
2021/08/31 01:52:06;;;;;;;58.22;32.15;;;14.20;99.90;;;;;;2071884;28;20034;-70
2021/08/31 01:53:07;;;;;;;53.33;30.60;;;14.20;99.90;;;;;;2079896;28;20507;-72
2021/08/31 01:54:08;;;;;;;43.08;28.85;;;14.20;99.90;;;;;;2079352;28;20029;-71
2021/08/31 01:55:09;;;;;;;48.47;29.10;;;14.20;99.90;;;;;;2088694;28;20120;-70
2021/08/31 01:56:09;;;;;;;60.70;30.77;;;14.20;99.90;;;;;;2088726;28;20237;-72
2021/08/31 01:57:10;;;;;;;62.25;31.20;;;14.20;99.90;;;;;;2079997;28;20025;-70
2021/08/31 01:58:11;;;;;;;47.58;30.20;;;14.20;99.90;;;;;;2079785;28;20466;-71
2021/08/31 01:59:11;;;;;;;47.08;29.67;;;14.20;99.90;;;;;;2079810;28;20021;-69
2021/08/31 02:00:12;;;;;;;39.88;28.45;;;14.20;99.90;;;;;;2080043;28;20472;-71
2021/08/31 02:01:13;;;;;;;43.90;28.80;;;14.20;99.90;;;;;;2079976;28;20104;-69
2021/08/31 02:02:13;;;;;;;41.72;27.85;;;14.20;99.90;;;;;;2079880;28;20017;-69
2021/08/31 02:03:14;;;;;;;42.75;28.65;;;14.10;99.90;;;;;;2088478;28;20033;-72
2021/08/31 02:04:15;;;;;;;54.75;30.15;;;14.20;99.90;;;;;;2088227;28;20032;-69
2021/08/31 02:05:15;;;;;;;41.88;28.52;;;14.20;99.90;;;;;;2088708;28;20021;-70
2021/08/31 02:06:16;;;;;;;40.88;28.05;;;14.20;99.90;;;;;;2088766;28;20052;-69
2021/08/31 02:07:16;;;;;;;49.60;28.52;;;14.20;99.90;;;;;;2088767;28;20101;-70
2021/08/31 02:08:17;;;;;;;37.53;26.80;;;14.20;99.90;;;;;;2088672;28;20116;-70
2021/08/31 02:09:17;;;;;;;39.03;26.98;;;14.20;99.90;;;;;;2079404;28;20616;-69
2021/08/31 02:10:18;;;;;;;44.63;27.52;;;14.20;99.90;;;;;;2079801;28;20104;-70
2021/08/31 02:11:19;;;;;;;39.08;25.73;;;14.20;99.90;;;;;;2088569;28;20036;-71
2021/08/31 02:12:19;;;;;;;47.15;29.50;;;14.20;99.90;;;;;;2079636;28;20075;-70
2021/08/31 02:13:20;;;;;;;40.15;27.67;;;14.10;99.90;;;;;;2079778;28;20041;-70
2021/08/31 02:14:20;;;;;;;53.00;29.45;;;14.10;99.90;;;;;;2088183;28;20036;-71
2021/08/31 02:15:21;;;;;;;54.75;29.60;;;14.10;99.90;;;;;;2088633;28;20548;-71
2021/08/31 02:16:21;;;;;;;40.17;27.58;;;14.10;99.90;;;;;;2079670;28;20048;-70
2021/08/31 02:17:22;;;;;;;44.15;28.65;;;14.10;99.90;;;;;;2079830;28;20079;-71
2021/08/31 02:18:23;;;;;;;40.00;28.23;;;14.10;99.90;;;;;;2079731;28;20037;-70
2021/08/31 02:19:24;;;;;;;46.55;28.30;;;14.10;99.90;;;;;;2088385;28;20029;-70
2021/08/31 02:20:25;;;;;;;46.00;28.33;;;14.10;99.90;;;;;;2088703;28;20484;-71
2021/08/31 02:21:25;;;;;;;42.50;27.13;;;14.10;99.90;;;;;;2079773;28;20496;-69
2021/08/31 02:22:26;;;;;;;40.72;26.85;;;14.10;99.90;;;;;;2079594;28;20045;-69
2021/08/31 02:23:26;;;;;;;50.13;29.52;;;14.10;99.90;;;;;;2079264;28;20481;-70
2021/08/31 02:24:27;;;;;;;38.25;27.20;;;14.10;99.90;;;;;;2079567;28;20436;-71
2021/08/31 02:25:28;;;;;;;39.65;26.60;;;14.10;99.90;;;;;;2079719;28;20232;-70
2021/08/31 02:26:31;;;;;;;37.17;25.77;;;14.10;99.90;;;;;;2079711;28;20041;-69
2021/08/31 02:27:31;;;;;;;42.30;26.58;;;14.10;99.90;;;;;;2079728;28;20025;-69
2021/08/31 02:28:32;;;;;;;39.42;25.60;;;14.10;99.90;;;;;;2079809;28;20911;-69
2021/08/31 02:29:33;;;;;;;32.08;24.60;;;14.20;99.90;;;;;;2079764;28;20033;-69
2021/08/31 02:30:33;;;;;;;33.42;24.02;;;14.20;99.90;;;;;;2088734;28;20104;-72
2021/08/31 02:31:34;;;;;;;41.28;24.48;;;14.20;99.90;;;;;;2088923;28;20492;-72
2021/08/31 02:32:35;;;;;;;32.20;23.88;;;14.20;99.90;;;;;;2088705;28;20119;-70
2021/08/31 02:33:35;;;;;;;32.58;23.98;;;14.20;99.90;;;;;;2079309;28;20036;-70
2021/08/31 02:34:36;;;;;;;36.28;24.10;;;14.20;99.90;;;;;;2079662;28;20539;-69
2021/08/31 02:35:36;;;;;;;35.38;24.02;;;14.20;99.90;;;;;;2079593;28;20036;-69
2021/08/31 02:36:38;;;;;;;34.13;22.98;;;14.20;99.90;;;;;;2079641;28;20108;-70
2021/08/31 02:37:38;;;;;;;38.33;24.48;;;14.20;99.90;;;;;;2079617;28;20025;-69
2021/08/31 02:38:39;;;;;;;34.55;23.17;;;14.20;99.90;;;;;;2079431;28;20034;-69
2021/08/31 02:39:39;;;;;;;39.88;23.35;;;14.20;99.90;;;;;;2071493;28;20034;-69
2021/08/31 02:40:40;;;;;;;33.85;22.58;;;14.20;99.90;;;;;;2079787;28;20034;-69
2021/08/31 02:41:41;;;;;;;34.33;23.05;;;14.20;99.90;;;;;;2088500;28;20025;-69
2021/08/31 02:42:41;;;;;;;35.70;23.67;;;14.20;99.90;;;;;;2088449;28;20107;-70
2021/08/31 02:43:42;;;;;;;37.38;23.67;;;14.20;99.90;;;;;;2087920;28;20499;-70
2021/08/31 02:44:43;;;;;;;38.00;24.20;;;14.20;99.90;;;;;;2079527;28;20025;-69
2021/08/31 02:45:43;;;;;;;37.17;23.77;;;14.20;99.90;;;;;;2071324;28;20453;-69
2021/08/31 02:46:44;;;;;;;37.83;24.05;;;14.20;99.90;;;;;;2071455;28;20029;-70
2021/08/31 02:47:44;;;;;;;41.70;25.05;;;14.20;99.90;;;;;;2079677;28;20072;-69
2021/08/31 02:48:45;;;;;;;46.30;25.88;;;14.20;99.90;;;;;;2079318;28;20064;-69
2021/08/31 02:49:46;;;;;;;37.55;24.15;;;14.20;99.90;;;;;;2079573;28;20136;-70
2021/08/31 02:50:46;;;;;;;32.65;22.83;;;14.20;99.90;;;;;;2080258;28;20053;-69
2021/08/31 02:51:47;;;;;;;35.13;24.00;;;14.20;99.90;;;;;;2090042;28;20485;-70
2021/08/31 02:52:49;;;;;;;37.17;25.45;;;14.20;99.90;;;;;;2090063;28;20465;-69
2021/08/31 02:53:50;;;;;;;36.10;24.35;;;14.20;99.90;;;;;;2089639;28;20187;-70
2021/08/31 02:54:50;;;;;;;38.25;26.33;;;14.20;99.90;;;;;;2090076;28;20522;-71
2021/08/31 02:55:51;;;;;;;35.58;24.60;;;14.20;99.90;;;;;;2081268;28;20025;-70
2021/08/31 02:56:51;;;;;;;52.65;27.88;;;14.20;99.90;;;;;;2081373;28;20048;-70
2021/08/31 02:57:52;;;;;;;53.13;28.95;;;14.20;99.90;;;;;;2090107;28;20480;-70
2021/08/31 02:58:52;;;;;;;42.47;27.42;;;14.20;99.90;;;;;;2089847;28;20167;-70
2021/08/31 02:59:53;;;;;;;49.45;29.35;;;14.10;99.90;;;;;;2073268;28;20433;-70
2021/08/31 03:01:04;;;;;;;57.97;30.38;;;14.10;99.90;;;;;;2073054;28;20033;-70
2021/08/31 03:02:05;;;;;;;47.38;27.90;;;14.10;99.90;;;;;;2084250;28;20120;-71
2021/08/31 03:03:06;;;;;;;34.30;25.88;;;14.10;99.90;;;;;;2091569;28;20024;-70
2021/08/31 03:04:06;;;;;;;47.25;28.00;;;14.10;99.90;;;;;;2091287;28;20032;-70
2021/08/31 03:05:07;;;;;;;44.78;26.98;;;14.10;99.90;;;;;;2092419;28;20106;-70
2021/08/31 03:06:08;;;;;;;40.78;26.35;;;14.20;99.90;;;;;;2091377;28;20025;-70
2021/08/31 03:07:13;;;;;;;39.65;26.35;;;14.20;99.90;;;;;;2094674;28;20119;-70
2021/08/31 03:08:14;;;;;;;38.80;25.83;;;14.10;99.90;;;;;;2091732;28;20307;-69
2021/08/31 03:09:14;;;;;;;41.85;26.90;;;14.20;99.90;;;;;;2091270;28;20049;-70
2021/08/31 03:10:15;;;;;;;46.03;27.83;;;14.10;99.90;;;;;;2083974;28;20116;-69
2021/08/31 03:11:16;;;;;;;37.90;26.85;;;14.10;99.90;;;;;;2081969;28;20033;-69
2021/08/31 03:12:17;;;;;;;35.97;25.52;;;14.10;99.90;;;;;;2082043;28;20025;-70
2021/08/31 03:13:17;;;;;;;40.15;26.38;;;14.10;99.90;;;;;;2082909;28;20131;-69
2021/08/31 03:14:22;;;;;;;40.10;26.80;;;14.10;99.90;;;;;;2073711;28;20346;-69
2021/08/31 03:15:22;;;;;;;37.25;25.55;;;14.10;99.90;;;;;;2075308;28;20033;-69
2021/08/31 03:16:23;;;;;;;40.33;26.30;;;14.20;99.90;;;;;;2074875;28;20435;-69
2021/08/31 03:17:23;;;;;;;35.95;24.73;;;14.20;99.90;;;;;;2082692;28;20053;-69
2021/08/31 03:18:24;;;;;;;41.83;26.10;;;14.20;99.90;;;;;;2091159;28;20029;-69
2021/08/31 03:19:25;;;;;;;43.15;26.33;;;14.20;99.90;;;;;;2091677;28;20564;-70
2021/08/31 03:20:26;;;;;;;37.45;24.65;;;14.10;99.90;;;;;;2094533;28;20091;-69
2021/08/31 03:21:28;;;;;;;36.85;25.02;;;14.10;99.90;;;;;;2090264;28;20029;-70
2021/08/31 03:22:29;;;;;;;42.05;25.52;;;14.10;99.90;;;;;;2090294;28;20104;-70
2021/08/31 03:23:29;;;;;;;52.88;28.05;;;14.10;99.90;;;;;;2090027;28;20814;-69
2021/08/31 03:24:31;;;;;;;36.08;24.88;;;14.10;99.90;;;;;;2081670;28;20547;-69
2021/08/31 03:25:31;;;;;;;40.90;24.92;;;14.10;99.90;;;;;;2081831;28;20079;-69
2021/08/31 03:26:32;;;;;;;42.65;25.67;;;14.20;99.90;;;;;;2090998;28;20071;-69
2021/08/31 03:27:32;;;;;;;54.10;28.58;;;14.20;99.90;;;;;;2082135;28;20029;-68
2021/08/31 03:28:33;;;;;;;41.92;27.30;;;14.10;99.90;;;;;;2084208;28;20061;-69
2021/08/31 03:29:34;;;;;;;53.92;28.55;;;14.10;99.90;;;;;;2092127;28;20033;-70
2021/08/31 03:30:34;;;;;;;52.78;28.30;;;14.10;99.90;;;;;;2083249;28;20029;-69
2021/08/31 03:31:35;;;;;;;36.60;25.38;;;14.10;99.90;;;;;;2083373;28;20079;-70
2021/08/31 03:32:39;;;;;;;39.13;26.85;;;14.10;99.90;;;;;;2082950;28;20508;-69
2021/08/31 03:33:39;;;;;;;47.25;27.20;;;14.10;99.90;;;;;;2090614;28;20060;-70
2021/08/31 03:34:40;;;;;;;37.80;24.58;;;14.10;99.90;;;;;;2090831;28;20037;-69
2021/08/31 03:35:40;;;;;;;41.53;26.52;;;14.10;99.90;;;;;;2089850;28;20037;-70
2021/08/31 03:36:41;;;;;;;47.53;26.40;;;14.10;99.90;;;;;;2089865;28;20079;-69
2021/08/31 03:37:42;;;;;;;55.22;28.50;;;14.10;99.90;;;;;;2089731;28;20412;-69
2021/08/31 03:38:43;;;;;;;39.38;26.20;;;14.10;99.90;;;;;;2080607;28;20064;-70
2021/08/31 03:39:43;;;;;;;38.38;26.35;;;14.10;99.90;;;;;;2081009;28;20032;-70
2021/08/31 03:40:44;;;;;;;40.17;24.88;;;14.00;99.90;;;;;;2080833;28;20472;-69
2021/08/31 03:41:44;;;;;;;42.08;25.55;;;14.10;99.90;;;;;;2089727;28;20035;-69
2021/08/31 03:42:47;;;;;;;37.15;24.52;;;14.10;99.90;;;;;;2089897;28;20095;-69
2021/08/31 03:43:47;;;;;;;36.63;23.25;;;14.10;99.90;;;;;;2089351;28;20036;-70
2021/08/31 03:44:48;;;;;;;39.33;23.48;;;14.10;99.90;;;;;;2080728;28;20036;-69
2021/08/31 03:45:48;;;;;;;39.35;24.10;;;14.20;99.90;;;;;;2080887;28;20120;-68
2021/08/31 03:46:49;;;;;;;33.05;23.95;;;14.10;99.90;;;;;;2080891;28;20130;-69
2021/08/31 03:47:49;;;;;;;33.22;23.23;;;14.10;99.90;;;;;;2080856;28;20041;-69
2021/08/31 03:48:50;;;;;;;42.35;24.38;;;14.10;99.90;;;;;;2089464;28;20126;-69
2021/08/31 03:49:51;;;;;;;40.17;23.95;;;14.10;99.90;;;;;;2089707;28;20104;-69
2021/08/31 03:50:51;;;;;;;35.60;24.45;;;14.10;99.90;;;;;;2089690;28;20063;-69
2021/08/31 03:51:52;;;;;;;37.60;23.40;;;14.20;99.90;;;;;;2089561;28;20032;-69
2021/08/31 03:52:52;;;;;;;32.90;23.20;;;14.20;99.90;;;;;;2089661;28;20102;-69
2021/08/31 03:53:53;;;;;;;39.58;23.75;;;14.10;99.90;;;;;;2089044;28;20051;-69
2021/08/31 03:54:53;;;;;;;34.60;22.50;;;14.10;99.90;;;;;;2089703;28;20031;-69
2021/08/31 03:55:54;;;;;;;34.10;22.00;;;14.20;99.90;;;;;;2089689;28;20476;-69
2021/08/31 03:56:55;;;;;;;36.08;22.52;;;14.20;99.90;;;;;;2089757;28;20511;-69
2021/08/31 03:57:55;;;;;;;32.03;22.40;;;14.20;99.90;;;;;;2089562;28;20037;-69
2021/08/31 03:58:56;;;;;;;38.92;22.25;;;14.20;99.90;;;;;;2080422;28;20036;-69
2021/08/31 03:59:56;;;;;;;36.92;22.80;;;14.20;99.90;;;;;;2080817;28;20041;-69
2021/08/31 04:00:57;;;;;;;35.42;23.85;;;14.20;99.90;;;;;;2072499;28;20048;-69
2021/08/31 04:01:57;;;;;;;37.03;23.50;;;14.10;99.90;;;;;;2071272;28;20421;-69
2021/08/31 04:02:58;;;;;;;30.45;21.67;;;14.10;99.90;;;;;;2080372;28;20524;-70
2021/08/31 04:03:59;;;;;;;40.05;23.83;;;14.20;99.90;;;;;;2080190;28;20089;-69
2021/08/31 04:04:59;;;;;;;47.80;25.42;;;14.20;99.90;;;;;;2080781;28;20101;-69
2021/08/31 04:06:00;;;;;;;36.03;24.17;;;14.10;99.90;;;;;;2080653;28;20079;-69
2021/08/31 04:07:00;;;;;;;35.40;23.85;;;14.10;99.90;;;;;;2089502;28;20032;-69
2021/08/31 04:08:01;;;;;;;28.88;21.90;;;14.10;99.90;;;;;;2089514;28;20194;-70
2021/08/31 04:09:01;;;;;;;38.42;24.88;;;14.20;99.90;;;;;;2089203;28;20060;-69
2021/08/31 04:10:02;;;;;;;43.88;24.67;;;14.10;99.90;;;;;;2089461;28;20132;-70
2021/08/31 04:11:03;;;;;;;31.83;22.45;;;14.10;99.90;;;;;;2089495;28;20066;-69
2021/08/31 04:12:05;;;;;;;41.03;24.27;;;14.10;99.90;;;;;;2089502;28;20032;-70
2021/08/31 04:13:07;;;;;;;36.92;21.83;;;14.10;99.90;;;;;;2080491;28;20079;-69
2021/08/31 04:14:07;;;;;;;35.20;22.60;;;14.10;99.90;;;;;;2080208;28;20050;-69
2021/08/31 04:15:09;;;;;;;37.60;23.33;;;14.10;99.90;;;;;;2080459;28;20025;-69
2021/08/31 04:16:09;;;;;;;32.58;21.42;;;14.10;99.90;;;;;;2089526;28;20033;-70
2021/08/31 04:17:10;;;;;;;33.05;21.42;;;14.20;99.90;;;;;;2089471;28;20610;-70
2021/08/31 04:18:10;;;;;;;32.20;21.98;;;14.20;99.90;;;;;;2089300;28;20032;-69
2021/08/31 04:19:11;;;;;;;38.15;22.30;;;14.20;99.90;;;;;;2089120;28;20476;-70
2021/08/31 04:20:12;;;;;;;39.17;23.63;;;14.20;99.90;;;;;;2089275;28;20021;-70
2021/08/31 04:21:13;;;;;;;32.42;22.60;;;14.20;99.90;;;;;;2089428;28;20035;-70
2021/08/31 04:22:13;;;;;;;31.50;21.05;;;14.20;99.90;;;;;;2080372;28;20500;-70
2021/08/31 04:23:14;;;;;;;31.33;20.77;;;14.20;99.90;;;;;;2080665;28;20761;-70
2021/08/31 04:24:15;;;;;;;29.05;19.52;;;14.30;99.90;;;;;;2079991;28;20025;-70
2021/08/31 04:25:15;;;;;;;34.28;20.83;;;14.30;99.90;;;;;;2080461;28;20046;-70
2021/08/31 04:26:16;;;;;;;33.35;20.30;;;14.30;99.90;;;;;;2080468;28;20362;-70
2021/08/31 04:27:17;;;;;;;27.58;18.58;;;14.40;99.90;;;;;;2080267;28;20021;-70
2021/08/31 04:28:17;;;;;;;25.85;18.70;;;14.40;99.90;;;;;;2089174;28;20037;-69
2021/08/31 04:29:18;;;;;;;22.85;18.02;;;14.40;99.90;;;;;;2080040;28;20102;-70
2021/08/31 04:30:18;;;;;;;22.83;17.00;;;14.40;99.90;;;;;;2080369;28;20428;-70
2021/08/31 04:31:22;;;;;;;24.40;17.95;;;14.40;99.90;;;;;;2089267;28;20475;-70
2021/08/31 04:32:22;;;;;;;23.13;18.10;;;14.40;99.90;;;;;;2089224;28;20037;-70
2021/08/31 04:33:23;;;;;;;27.73;18.70;;;14.50;99.90;;;;;;2079822;28;20067;-70
2021/08/31 04:34:24;;;;;;;23.75;17.80;;;14.50;99.90;;;;;;2080524;28;20033;-70
2021/08/31 04:35:24;;;;;;;23.45;17.45;;;14.50;99.90;;;;;;2080414;28;20040;-70
2021/08/31 04:36:25;;;;;;;27.40;18.60;;;14.50;99.90;;;;;;2080386;28;20079;-69
2021/08/31 04:37:25;;;;;;;24.48;17.75;;;14.50;99.90;;;;;;2080456;28;20040;-71
2021/08/31 04:38:26;;;;;;;24.17;17.65;;;14.50;99.90;;;;;;2089057;28;20029;-70
2021/08/31 04:39:26;;;;;;;29.33;18.83;;;14.50;99.90;;;;;;2088935;28;20677;-70
2021/08/31 04:40:27;;;;;;;25.52;17.42;;;14.50;99.90;;;;;;2089096;28;20017;-70
2021/08/31 04:41:28;;;;;;;21.73;15.85;;;14.50;99.90;;;;;;2089297;28;20025;-70
2021/08/31 04:42:28;;;;;;;26.17;17.10;;;14.50;99.90;;;;;;2089168;28;20052;-71
2021/08/31 04:43:29;;;;;;;25.20;17.02;;;14.50;99.90;;;;;;2088670;28;20025;-71
2021/08/31 04:44:30;;;;;;;25.80;16.63;;;14.50;99.90;;;;;;2089185;28;20041;-70
2021/08/31 04:45:30;;;;;;;25.25;16.80;;;14.50;99.90;;;;;;2089170;28;20025;-70
2021/08/31 04:46:31;;;;;;;25.88;17.38;;;14.50;99.90;;;;;;2089204;28;20512;-70
2021/08/31 04:47:31;;;;;;;25.27;16.75;;;14.50;99.90;;;;;;2089092;28;20115;-71
2021/08/31 04:48:32;;;;;;;22.77;15.77;;;14.50;99.90;;;;;;2089201;28;20049;-71
2021/08/31 04:49:33;;;;;;;22.17;15.50;;;14.60;99.90;;;;;;2080045;28;20041;-70
2021/08/31 04:50:33;;;;;;;23.65;16.92;;;14.60;99.90;;;;;;2080271;28;20148;-71
2021/08/31 04:51:34;;;;;;;25.20;17.08;;;14.60;99.90;;;;;;2079951;28;20037;-70
2021/08/31 04:52:35;;;;;;;22.52;15.98;;;14.60;99.90;;;;;;2080333;28;20030;-71
2021/08/31 04:53:35;;;;;;;22.58;15.98;;;14.60;99.90;;;;;;2088747;28;20510;-71
2021/08/31 04:54:36;;;;;;;25.90;16.65;;;14.60;99.90;;;;;;2089237;28;20037;-71
2021/08/31 04:55:36;;;;;;;26.88;16.80;;;14.60;99.90;;;;;;2089194;28;20115;-72
2021/08/31 04:56:37;;;;;;;20.77;15.45;;;14.60;99.90;;;;;;2089117;28;20532;-71
2021/08/31 04:57:38;;;;;;;25.45;16.30;;;14.60;99.90;;;;;;2089055;28;20029;-70
2021/08/31 04:58:38;;;;;;;25.42;16.73;;;14.60;99.90;;;;;;2088755;28;20793;-70
2021/08/31 04:59:39;;;;;;;24.05;17.13;;;14.60;99.90;;;;;;2080273;28;20085;-71
2021/08/31 05:00:39;;;;;;;22.95;15.88;;;14.60;99.90;;;;;;2080195;28;20104;-71
2021/08/31 05:01:40;;;;;;;23.48;16.02;;;14.60;99.90;;;;;;2080130;28;20036;-71
2021/08/31 05:02:41;;;;;;;24.17;16.48;;;14.60;99.90;;;;;;2080303;28;20102;-70
2021/08/31 05:03:42;;;;;;;23.00;16.42;;;14.60;99.90;;;;;;2088547;28;20488;-71
2021/08/31 05:04:43;;;;;;;24.83;17.30;;;14.50;99.90;;;;;;2089043;28;20048;-71
2021/08/31 05:05:44;;;;;;;27.35;18.08;;;14.50;99.90;;;;;;2088834;28;20108;-71
2021/08/31 05:06:45;;;;;;;22.35;16.60;;;14.50;99.90;;;;;;2088956;28;20122;-70
2021/08/31 05:07:45;;;;;;;27.45;17.80;;;14.60;99.90;;;;;;2088882;28;20066;-70
2021/08/31 05:08:46;;;;;;;27.10;17.90;;;14.60;99.90;;;;;;2088641;28;20053;-71
2021/08/31 05:09:55;;;;;;;24.85;18.20;;;14.50;99.90;;;;;;2088963;28;20388;-71